sensor_id;sensor_type;location;lat;lon;timestamp;temperature;humidity
65040;HTU21D;51606;45.000;38.612;2023-10-09T10:05:11;17.40;47.43
65040;HTU21D;51606;45.000;38.612;2023-10-09T10:07:38;17.37;47.15
65040;HTU21D;51606;45.000;38.612;2023-10-09T10:11:09;17.46;46.82
65040;HTU21D;51606;45.000;38.612;2023-10-09T10:16:09;17.63;46.28
65040;HTU21D;51606;45.000;38.612;2023-10-09T10:18:55;17.73;46.01
65040;HTU21D;51606;45.000;38.612;2023-10-09T10:21:42;17.73;45.93
65040;HTU21D;51606;45.000;38.612;2023-10-09T10:27:19;17.81;45.83
65040;HTU21D;51606;45.000;38.612;2023-10-09T10:35:19;17.93;45.43
65040;HTU21D;51606;45.000;38.612;2023-10-09T10:38:02;17.85;45.51
65040;HTU21D;51606;45.000;38.612;2023-10-09T10:40:41;17.72;45.74
65040;HTU21D;51606;45.000;38.612;2023-10-09T10:43:18;17.72;45.87
65040;HTU21D;51606;45.000;38.612;2023-10-09T10:46:15;17.89;45.69
65040;HTU21D;51606;45.000;38.612;2023-10-09T10:49:00;17.99;45.49
65040;HTU21D;51606;45.000;38.612;2023-10-09T10:51:42;17.90;45.57
65040;HTU21D;51606;45.000;38.612;2023-10-09T10:54:24;17.89;45.66
65040;HTU21D;51606;45.000;38.612;2023-10-09T10:57:00;18.02;45.65
65040;HTU21D;51606;45.000;38.612;2023-10-09T11:04:40;18.27;45.48
65040;HTU21D;51606;45.000;38.612;2023-10-09T11:07:10;18.36;45.47
65040;HTU21D;51606;45.000;38.612;2023-10-09T11:09:54;18.33;45.52
65040;HTU21D;51606;45.000;38.612;2023-10-09T11:12:50;18.08;45.85
65040;HTU21D;51606;45.000;38.612;2023-10-09T11:15:36;17.76;46.35
65040;HTU21D;51606;45.000;38.612;2023-10-09T11:18:14;17.67;46.56
65040;HTU21D;51606;45.000;38.612;2023-10-09T11:20:55;17.68;46.45
65040;HTU21D;51606;45.000;38.612;2023-10-09T11:23:42;17.50;46.49
65040;HTU21D;51606;45.000;38.612;2023-10-09T11:26:18;17.33;46.59
65040;HTU21D;51606;45.000;38.612;2023-10-09T11:29:13;17.16;46.71
65040;HTU21D;51606;45.000;38.612;2023-10-09T11:32:05;17.03;46.75
65040;HTU21D;51606;45.000;38.612;2023-10-09T11:34:32;16.93;46.75
65040;HTU21D;51606;45.000;38.612;2023-10-09T11:37:13;16.77;46.81
65040;HTU21D;51606;45.000;38.612;2023-10-09T11:39:58;16.48;47.06
65040;HTU21D;51606;45.000;38.612;2023-10-09T11:42:30;16.42;47.13
65040;HTU21D;51606;45.000;38.612;2023-10-09T11:45:18;16.39;47.09
65040;HTU21D;51606;45.000;38.612;2023-10-09T11:47:47;16.30;47.14
65040;HTU21D;51606;45.000;38.612;2023-10-09T11:50:43;16.20;47.22
65040;HTU21D;51606;45.000;38.612;2023-10-09T11:53:18;16.03;47.25
65040;HTU21D;51606;45.000;38.612;2023-10-09T11:55:48;15.91;47.36
65040;HTU21D;51606;45.000;38.612;2023-10-09T11:58:19;15.83;47.41
65040;HTU21D;51606;45.000;38.612;2023-10-09T12:00:55;15.75;47.40
65040;HTU21D;51606;45.000;38.612;2023-10-09T12:03:32;15.67;47.40
65040;HTU21D;51606;45.000;38.612;2023-10-09T12:06:00;15.57;47.49
65040;HTU21D;51606;45.000;38.612;2023-10-09T12:08:40;15.48;47.51
65040;HTU21D;51606;45.000;38.612;2023-10-09T12:11:07;15.51;47.50
65040;HTU21D;51606;45.000;38.612;2023-10-09T12:13:38;15.46;47.47
65040;HTU21D;51606;45.000;38.612;2023-10-09T12:16:05;15.48;47.48
65040;HTU21D;51606;45.000;38.612;2023-10-09T12:18:37;15.58;47.41
65040;HTU21D;51606;45.000;38.612;2023-10-09T12:21:05;15.59;47.29
65040;HTU21D;51606;45.000;38.612;2023-10-09T12:23:33;15.60;47.25
65040;HTU21D;51606;45.000;38.612;2023-10-09T12:26:03;15.55;47.24
65040;HTU21D;51606;45.000;38.612;2023-10-09T12:28:30;15.52;47.29
65040;HTU21D;51606;45.000;38.612;2023-10-09T12:30:59;15.46;47.33
65040;HTU21D;51606;45.000;38.612;2023-10-09T12:33:29;15.37;47.47
65040;HTU21D;51606;45.000;38.612;2023-10-09T12:35:56;15.31;47.51
65040;HTU21D;51606;45.000;38.612;2023-10-09T12:38:27;15.32;47.57
65040;HTU21D;51606;45.000;38.612;2023-10-09T12:41:07;15.44;47.52
65040;HTU21D;51606;45.000;38.612;2023-10-09T12:43:48;15.54;47.41
65040;HTU21D;51606;45.000;38.612;2023-10-09T12:46:15;15.52;47.44
65040;HTU21D;51606;45.000;38.612;2023-10-09T12:48:44;15.40;47.64
65040;HTU21D;51606;45.000;38.612;2023-10-09T12:51:14;15.29;47.88
65040;HTU21D;51606;45.000;38.612;2023-10-09T12:53:44;15.13;48.15
65040;HTU21D;51606;45.000;38.612;2023-10-09T12:56:12;15.03;48.38
65040;HTU21D;51606;45.000;38.612;2023-10-09T12:58:38;14.94;48.53
65040;HTU21D;51606;45.000;38.612;2023-10-09T13:01:07;14.89;48.56
65040;HTU21D;51606;45.000;38.612;2023-10-09T13:03:38;14.83;48.62
65040;HTU21D;51606;45.000;38.612;2023-10-09T13:06:05;14.80;48.63
65040;HTU21D;51606;45.000;38.612;2023-10-09T13:08:37;14.72;48.66
65040;HTU21D;51606;45.000;38.612;2023-10-09T13:11:08;14.62;48.75
65040;HTU21D;51606;45.000;38.612;2023-10-09T13:13:39;14.49;48.89
65040;HTU21D;51606;45.000;38.612;2023-10-09T13:16:14;14.37;49.04
65040;HTU21D;51606;45.000;38.612;2023-10-09T13:18:51;14.23;49.19
65040;HTU21D;51606;45.000;38.612;2023-10-09T13:21:20;14.10;49.34
65040;HTU21D;51606;45.000;38.612;2023-10-09T13:23:47;13.94;49.50
65040;HTU21D;51606;45.000;38.612;2023-10-09T13:26:19;13.79;49.69
65040;HTU21D;51606;45.000;38.612;2023-10-09T13:28:58;13.67;49.82
65040;HTU21D;51606;45.000;38.612;2023-10-09T13:31:26;13.63;49.85
65040;HTU21D;51606;45.000;38.612;2023-10-09T13:33:54;13.61;49.84
65040;HTU21D;51606;45.000;38.612;2023-10-09T13:36:22;13.60;49.82
65040;HTU21D;51606;45.000;38.612;2023-10-09T13:39:02;13.58;49.75
65040;HTU21D;51606;45.000;38.612;2023-10-09T13:41:54;13.52;49.76
65040;HTU21D;51606;45.000;38.612;2023-10-09T13:44:26;13.41;49.84
65040;HTU21D;51606;45.000;38.612;2023-10-09T13:47:00;13.27;50.02
65040;HTU21D;51606;45.000;38.612;2023-10-09T13:49:31;13.09;50.17
65040;HTU21D;51606;45.000;38.612;2023-10-09T13:51:59;12.90;50.40
65040;HTU21D;51606;45.000;38.612;2023-10-09T13:54:27;12.73;50.63
65040;HTU21D;51606;45.000;38.612;2023-10-09T13:57:01;12.60;50.78
65040;HTU21D;51606;45.000;38.612;2023-10-09T13:59:30;12.50;50.89
65040;HTU21D;51606;45.000;38.612;2023-10-09T14:14:06;11.75;51.48
65040;HTU21D;51606;45.000;38.612;2023-10-09T14:16:36;11.67;51.59
65040;HTU21D;51606;45.000;38.612;2023-10-09T14:19:03;11.60;51.71
65040;HTU21D;51606;45.000;38.612;2023-10-09T14:21:34;11.59;51.69
65040;HTU21D;51606;45.000;38.612;2023-10-09T14:24:04;11.58;51.70
65040;HTU21D;51606;45.000;38.612;2023-10-09T14:26:44;11.55;51.70
65040;HTU21D;51606;45.000;38.612;2023-10-09T14:29:18;11.53;51.71
65040;HTU21D;51606;45.000;38.612;2023-10-09T14:31:45;11.47;51.82
65040;HTU21D;51606;45.000;38.612;2023-10-09T14:34:27;11.42;51.87
65040;HTU21D;51606;45.000;38.612;2023-10-09T14:37:02;11.37;51.94
65040;HTU21D;51606;45.000;38.612;2023-10-09T14:39:29;11.32;51.99
65040;HTU21D;51606;45.000;38.612;2023-10-09T14:41:56;11.29;52.01
65040;HTU21D;51606;45.000;38.612;2023-10-09T14:44:25;11.25;52.08
65040;HTU21D;51606;45.000;38.612;2023-10-09T14:46:54;11.18;52.16
65040;HTU21D;51606;45.000;38.612;2023-10-09T14:49:21;11.10;52.26
65040;HTU21D;51606;45.000;38.612;2023-10-09T14:51:49;10.98;52.40
65040;HTU21D;51606;45.000;38.612;2023-10-09T14:54:17;10.83;52.57
65040;HTU21D;51606;45.000;38.612;2023-10-09T14:56:45;10.69;52.78
65040;HTU21D;51606;45.000;38.612;2023-10-09T14:59:11;10.56;52.92
65040;HTU21D;51606;45.000;38.612;2023-10-09T15:01:38;10.41;53.07
65040;HTU21D;51606;45.000;38.612;2023-10-09T15:04:05;10.29;53.21
65040;HTU21D;51606;45.000;38.612;2023-10-09T15:06:33;10.13;53.38
65040;HTU21D;51606;45.000;38.612;2023-10-09T15:09:01;9.98;53.55
65040;HTU21D;51606;45.000;38.612;2023-10-09T15:11:34;9.83;53.68
65040;HTU21D;51606;45.000;38.612;2023-10-09T15:14:05;9.68;53.82
65040;HTU21D;51606;45.000;38.612;2023-10-09T15:16:32;9.56;53.92
65040;HTU21D;51606;45.000;38.612;2023-10-09T15:18:59;9.44;54.04
65040;HTU21D;51606;45.000;38.612;2023-10-09T15:21:31;9.25;54.18
65040;HTU21D;51606;45.000;38.612;2023-10-09T15:24:00;9.12;54.34
65040;HTU21D;51606;45.000;38.612;2023-10-09T15:26:27;8.98;54.46
65040;HTU21D;51606;45.000;38.612;2023-10-09T15:29:01;8.89;54.56
65040;HTU21D;51606;45.000;38.612;2023-10-09T15:31:33;8.79;54.60
65040;HTU21D;51606;45.000;38.612;2023-10-09T15:34:00;8.70;54.65
65040;HTU21D;51606;45.000;38.612;2023-10-09T15:36:26;8.60;54.71
65040;HTU21D;51606;45.000;38.612;2023-10-09T15:38:57;8.52;54.79
65040;HTU21D;51606;45.000;38.612;2023-10-09T15:41:29;8.45;54.85
65040;HTU21D;51606;45.000;38.612;2023-10-09T15:43:57;8.36;54.89
65040;HTU21D;51606;45.000;38.612;2023-10-09T15:46:24;8.28;54.96
65040;HTU21D;51606;45.000;38.612;2023-10-09T15:49:00;8.20;55.01
65040;HTU21D;51606;45.000;38.612;2023-10-09T15:51:29;8.16;55.13
65040;HTU21D;51606;45.000;38.612;2023-10-09T15:53:57;8.05;55.14
65040;HTU21D;51606;45.000;38.612;2023-10-09T15:56:24;7.94;55.26
65040;HTU21D;51606;45.000;38.612;2023-10-09T15:58:50;7.84;55.39
65040;HTU21D;51606;45.000;38.612;2023-10-09T16:01:20;7.72;55.52
65040;HTU21D;51606;45.000;38.612;2023-10-09T16:03:47;7.63;55.67
65040;HTU21D;51606;45.000;38.612;2023-10-09T16:06:18;7.55;55.80
65040;HTU21D;51606;45.000;38.612;2023-10-09T16:08:48;7.46;55.86
65040;HTU21D;51606;45.000;38.612;2023-10-09T16:11:20;7.37;55.94
65040;HTU21D;51606;45.000;38.612;2023-10-09T16:13:50;7.29;55.99
65040;HTU21D;51606;45.000;38.612;2023-10-09T16:16:37;7.24;56.10
65040;HTU21D;51606;45.000;38.612;2023-10-09T16:19:12;7.18;56.00
65040;HTU21D;51606;45.000;38.612;2023-10-09T16:21:39;7.12;56.03
65040;HTU21D;51606;45.000;38.612;2023-10-09T16:24:06;7.10;56.04
65040;HTU21D;51606;45.000;38.612;2023-10-09T16:26:36;7.08;56.05
65040;HTU21D;51606;45.000;38.612;2023-10-09T16:29:11;7.07;56.00
65040;HTU21D;51606;45.000;38.612;2023-10-09T16:31:38;7.05;56.02
65040;HTU21D;51606;45.000;38.612;2023-10-09T16:34:05;7.04;56.02
65040;HTU21D;51606;45.000;38.612;2023-10-09T16:36:33;7.00;56.06
65040;HTU21D;51606;45.000;38.612;2023-10-09T16:39:02;6.97;56.12
65040;HTU21D;51606;45.000;38.612;2023-10-09T16:41:29;6.94;56.19
65040;HTU21D;51606;45.000;38.612;2023-10-09T16:44:00;6.88;56.26
65040;HTU21D;51606;45.000;38.612;2023-10-09T16:46:27;6.83;56.33
65040;HTU21D;51606;45.000;38.612;2023-10-09T16:48:53;6.78;56.42
65040;HTU21D;51606;45.000;38.612;2023-10-09T16:51:23;6.73;56.48
65040;HTU21D;51606;45.000;38.612;2023-10-09T16:53:51;6.69;56.57
65040;HTU21D;51606;45.000;38.612;2023-10-09T16:56:22;6.67;56.64
65040;HTU21D;51606;45.000;38.612;2023-10-09T16:58:50;6.64;56.71
65040;HTU21D;51606;45.000;38.612;2023-10-09T17:01:19;6.59;56.77
65040;HTU21D;51606;45.000;38.612;2023-10-09T17:03:48;6.55;56.85
65040;HTU21D;51606;45.000;38.612;2023-10-09T17:06:21;6.52;56.90
65040;HTU21D;51606;45.000;38.612;2023-10-09T17:08:48;6.48;56.97
65040;HTU21D;51606;45.000;38.612;2023-10-09T17:11:15;6.46;57.04
65040;HTU21D;51606;45.000;38.612;2023-10-09T17:13:46;6.42;57.06
65040;HTU21D;51606;45.000;38.612;2023-10-09T17:16:16;6.38;57.16
65040;HTU21D;51606;45.000;38.612;2023-10-09T17:18:47;6.35;57.30
65040;HTU21D;51606;45.000;38.612;2023-10-09T17:21:14;6.30;57.39
65040;HTU21D;51606;45.000;38.612;2023-10-09T17:23:41;6.31;57.43
65040;HTU21D;51606;45.000;38.612;2023-10-09T17:26:14;6.36;57.39
65040;HTU21D;51606;45.000;38.612;2023-10-09T17:28:49;6.36;57.33
65040;HTU21D;51606;45.000;38.612;2023-10-09T17:31:19;6.37;57.30
65040;HTU21D;51606;45.000;38.612;2023-10-09T17:33:47;6.34;57.35
65040;HTU21D;51606;45.000;38.612;2023-10-09T17:36:14;6.29;57.42
65040;HTU21D;51606;45.000;38.612;2023-10-09T17:38:45;6.27;57.52
65040;HTU21D;51606;45.000;38.612;2023-10-09T17:41:18;6.26;57.53
65040;HTU21D;51606;45.000;38.612;2023-10-09T17:51:28;6.55;57.01
65040;HTU21D;51606;45.000;38.612;2023-10-09T17:53:54;6.61;57.03
65040;HTU21D;51606;45.000;38.612;2023-10-09T17:56:21;6.70;57.03
65040;HTU21D;51606;45.000;38.612;2023-10-09T17:58:52;6.79;56.98
65040;HTU21D;51606;45.000;38.612;2023-10-09T18:01:19;6.86;56.93
65040;HTU21D;51606;45.000;38.612;2023-10-09T18:03:46;6.95;56.91
65040;HTU21D;51606;45.000;38.612;2023-10-09T18:06:12;7.00;56.90
65040;HTU21D;51606;45.000;38.612;2023-10-09T18:08:43;7.03;56.90
65040;HTU21D;51606;45.000;38.612;2023-10-09T18:11:09;7.04;56.93
65040;HTU21D;51606;45.000;38.612;2023-10-09T18:13:40;7.05;57.00
65040;HTU21D;51606;45.000;38.612;2023-10-09T18:16:08;7.03;57.12
65040;HTU21D;51606;45.000;38.612;2023-10-09T18:18:39;7.02;57.18
65040;HTU21D;51606;45.000;38.612;2023-10-09T18:21:12;7.02;57.25
65040;HTU21D;51606;45.000;38.612;2023-10-09T18:23:42;7.00;57.35
65040;HTU21D;51606;45.000;38.612;2023-10-09T18:26:14;6.98;57.45
65040;HTU21D;51606;45.000;38.612;2023-10-09T18:28:44;7.00;57.58
65040;HTU21D;51606;45.000;38.612;2023-10-09T18:31:14;7.00;57.58
65040;HTU21D;51606;45.000;38.612;2023-10-09T18:33:47;7.02;57.66
65040;HTU21D;51606;45.000;38.612;2023-10-09T18:36:19;7.07;57.60
65040;HTU21D;51606;45.000;38.612;2023-10-09T18:38:45;7.11;57.56
65040;HTU21D;51606;45.000;38.612;2023-10-09T18:41:16;7.14;57.53
65040;HTU21D;51606;45.000;38.612;2023-10-09T18:43:43;7.18;57.53
65040;HTU21D;51606;45.000;38.612;2023-10-09T18:46:10;7.22;57.51
65040;HTU21D;51606;45.000;38.612;2023-10-09T18:48:40;7.27;57.48
65040;HTU21D;51606;45.000;38.612;2023-10-09T18:51:06;7.28;57.49
65040;HTU21D;51606;45.000;38.612;2023-10-09T18:53:40;7.28;57.54
65040;HTU21D;51606;45.000;38.612;2023-10-09T18:56:14;7.27;57.70
65040;HTU21D;51606;45.000;38.612;2023-10-09T18:58:42;7.25;57.74
65040;HTU21D;51606;45.000;38.612;2023-10-09T19:01:08;7.23;57.80
65040;HTU21D;51606;45.000;38.612;2023-10-09T19:03:42;7.20;57.89
65040;HTU21D;51606;45.000;38.612;2023-10-09T19:06:13;7.22;57.96
65040;HTU21D;51606;45.000;38.612;2023-10-09T19:08:44;7.18;58.02
65040;HTU21D;51606;45.000;38.612;2023-10-09T19:11:14;7.16;58.09
65040;HTU21D;51606;45.000;38.612;2023-10-09T19:13:41;7.14;58.18
65040;HTU21D;51606;45.000;38.612;2023-10-09T19:16:08;7.11;58.27
65040;HTU21D;51606;45.000;38.612;2023-10-09T19:18:35;7.08;58.36
65040;HTU21D;51606;45.000;38.612;2023-10-09T19:21:05;7.02;58.48
65040;HTU21D;51606;45.000;38.612;2023-10-09T19:23:38;6.95;58.56
65040;HTU21D;51606;45.000;38.612;2023-10-09T19:26:10;6.87;58.68
65040;HTU21D;51606;45.000;38.612;2023-10-09T19:28:41;6.83;58.79
65040;HTU21D;51606;45.000;38.612;2023-10-09T19:31:13;6.79;58.87
65040;HTU21D;51606;45.000;38.612;2023-10-09T19:33:42;6.75;58.89
65040;HTU21D;51606;45.000;38.612;2023-10-09T19:36:10;6.72;58.94
65040;HTU21D;51606;45.000;38.612;2023-10-09T19:38:46;6.70;58.94
65040;HTU21D;51606;45.000;38.612;2023-10-09T19:41:19;6.67;58.98
65040;HTU21D;51606;45.000;38.612;2023-10-09T19:43:46;6.65;59.03
65040;HTU21D;51606;45.000;38.612;2023-10-09T19:46:13;6.63;59.03
